Terminal Aerodrome Forecast
Issued by NWS Salt Lake City, UT

Home | Current Version | Previous Version | Text Only | Print | Product List | Glossary On
Versions: 1 2 3 4 5 6 7 8 9 10 11 12 13 14 15
000
FTUS45 KSLC 081749
TAFCDC
TAF
KCDC 081749Z 0818/0918 VRB04KT P6SM SCT040 BKN080
     FM081900 20008KT P6SM SCT030 BKN060
     FM090900 VRB04KT P6SM SCT030 BKN060=

USA.gov is the U.S. government's official web portal to all federal, state and local government web resources and services.